Time;durP1;ratioP1;P1;durP2;ratioP2;P2;SDS_P1;SDS_P2;PMS_P1;PMS_P2;Temp;Humidity;BMP_temperature;BMP_pressure;BME280_temperature;BME280_humidity;BME280_pressure;Samples;Min_cycle;Max_cycle;Signal;HPM_P1;HPM_P2
2022/11/21 00:01:35;;;;;;;30.75;22.40;;;1.20;99.90;;;;;;5039124;28;20052;-51
2022/11/21 00:04:00;;;;;;;;;;;1.20;99.90;;;;;;5009967;28;20127;-51
2022/11/21 00:06:26;;;;;;;29.10;20.20;;;1.20;99.90;;;;;;5041955;28;20378;-52
2022/11/21 00:08:51;;;;;;;31.92;21.88;;;1.20;99.90;;;;;;5043197;28;20028;-49
2022/11/21 00:11:17;;;;;;;32.25;22.77;;;1.10;99.90;;;;;;5043760;28;20041;-49
2022/11/21 00:13:44;;;;;;;31.73;21.23;;;1.20;99.90;;;;;;5047431;28;20121;-50
2022/11/21 00:16:12;;;;;;;32.13;21.23;;;1.20;99.90;;;;;;5045717;28;20049;-49
2022/11/21 00:18:37;;;;;;;30.05;22.33;;;1.20;99.90;;;;;;5042739;28;20041;-53
2022/11/21 00:21:10;;;;;;;30.90;21.40;;;1.20;99.90;;;;;;5042824;28;20055;-49
2022/11/21 00:23:35;;;;;;;33.03;22.98;;;1.20;99.90;;;;;;5046857;28;21032;-51
2022/11/21 00:26:05;;;;;;;29.55;21.85;;;1.10;99.90;;;;;;5043324;28;20128;-51
2022/11/21 00:28:31;;;;;;;31.30;21.25;;;1.20;99.90;;;;;;5048231;28;20052;-51
2022/11/21 00:30:57;;;;;;;29.70;21.88;;;1.10;99.90;;;;;;5039665;28;20037;-49
2022/11/21 00:33:22;;;;;;;32.40;22.80;;;1.20;99.90;;;;;;5040145;28;20123;-49
2022/11/21 00:35:48;;;;;;;34.13;22.10;;;1.20;99.90;;;;;;5035934;28;20049;-49
2022/11/21 00:38:15;;;;;;;31.70;22.35;;;1.10;99.90;;;;;;5039628;28;20045;-51
2022/11/21 00:40:42;;;;;;;31.17;22.60;;;1.10;99.90;;;;;;5037335;28;20060;-52
2022/11/21 00:43:08;;;;;;;28.20;21.95;;;1.10;99.90;;;;;;5038161;28;20462;-50
2022/11/21 00:45:33;;;;;;;31.65;22.42;;;1.10;99.90;;;;;;5037178;28;20166;-49
2022/11/21 00:47:59;;;;;;;33.22;22.58;;;1.10;99.90;;;;;;5037788;28;20057;-49
2022/11/21 00:50:24;;;;;;;33.05;23.15;;;1.10;99.90;;;;;;5040377;28;20033;-50
2022/11/21 00:52:55;;;;;;;31.88;22.50;;;1.10;99.90;;;;;;5042157;28;20111;-49
2022/11/21 00:55:21;;;;;;;31.10;22.20;;;1.10;99.90;;;;;;5041007;28;20389;-49
2022/11/21 00:57:46;;;;;;;33.55;22.92;;;1.10;99.90;;;;;;5038987;28;20053;-49
2022/11/21 01:00:12;;;;;;;30.77;22.00;;;1.10;99.90;;;;;;5037399;28;20037;-50
2022/11/21 01:02:38;;;;;;;29.73;21.42;;;1.20;99.90;;;;;;5037717;28;20085;-53
2022/11/21 01:05:04;;;;;;;30.02;22.17;;;1.10;99.90;;;;;;5036311;28;20167;-53
2022/11/21 01:07:29;;;;;;;29.00;21.17;;;1.10;99.90;;;;;;5042285;28;20051;-50
2022/11/21 01:09:55;;;;;;;28.40;21.40;;;1.10;99.90;;;;;;5041758;28;21744;-52
2022/11/21 01:12:21;;;;;;;29.33;21.25;;;1.10;99.90;;;;;;5041842;28;20126;-49
2022/11/21 01:14:46;;;;;;;28.20;21.90;;;1.10;99.90;;;;;;5039121;28;20044;-51
2022/11/21 01:17:12;;;;;;;30.38;22.27;;;1.20;99.90;;;;;;5041868;28;20489;-50
2022/11/21 01:19:38;;;;;;;29.80;21.98;;;1.20;99.90;;;;;;5042155;28;20041;-51
2022/11/21 01:22:03;;;;;;;31.27;22.58;;;1.20;99.90;;;;;;5040720;28;20122;-53
2022/11/21 01:24:29;;;;;;;30.52;21.98;;;1.20;99.90;;;;;;5042545;28;20446;-49
2022/11/21 01:26:54;;;;;;;29.92;21.42;;;1.30;99.90;;;;;;5043620;28;20144;-53
2022/11/21 01:29:20;;;;;;;31.73;22.40;;;1.40;99.90;;;;;;5041269;28;20427;-50
2022/11/21 01:31:45;;;;;;;31.50;22.65;;;1.40;99.90;;;;;;5044465;28;20041;-50
2022/11/21 01:34:13;;;;;;;32.45;23.25;;;1.40;99.90;;;;;;5042813;28;20037;-52
2022/11/21 01:36:39;;;;;;;34.40;23.10;;;1.40;99.90;;;;;;5039285;28;20419;-54
2022/11/21 01:39:06;;;;;;;31.27;21.98;;;1.30;99.90;;;;;;5038219;28;20048;-54
2022/11/21 01:41:35;;;;;;;32.90;23.43;;;1.20;99.90;;;;;;5043112;28;20086;-53
2022/11/21 01:44:22;;;;;;;30.20;22.60;;;1.20;99.90;;;;;;5043498;28;20045;-51
2022/11/21 01:46:49;;;;;;;29.93;22.70;;;1.30;99.90;;;;;;5043632;28;20076;-53
2022/11/21 01:49:17;;;;;;;30.02;22.88;;;1.30;99.90;;;;;;5037986;28;20048;-51
2022/11/21 01:51:45;;;;;;;29.65;23.25;;;1.30;99.90;;;;;;5036857;28;20040;-50
2022/11/21 01:54:42;;;;;;;32.88;23.25;;;1.30;99.90;;;;;;5037654;28;20041;-50
2022/11/21 01:57:16;;;;;;;30.65;22.52;;;1.30;99.90;;;;;;5036429;28;20049;-49
2022/11/21 02:00:01;;;;;;;33.40;23.42;;;1.30;99.90;;;;;;5040168;28;20041;-53
2022/11/21 02:02:30;;;;;;;32.28;22.88;;;1.30;99.90;;;;;;5043102;28;20040;-50
2022/11/21 02:04:59;;;;;;;32.60;23.13;;;1.30;99.90;;;;;;5044689;28;20119;-51
2022/11/21 02:07:27;;;;;;;30.95;23.33;;;1.30;99.90;;;;;;5048936;28;20037;-53
2022/11/21 02:09:57;;;;;;;32.72;23.33;;;1.30;99.90;;;;;;5049637;28;20548;-52
2022/11/21 02:12:32;;;;;;;30.42;23.33;;;1.30;99.90;;;;;;5054861;28;20560;-53
2022/11/21 02:14:58;;;;;;;31.23;22.52;;;1.30;99.90;;;;;;5054675;28;20060;-52
2022/11/21 02:17:27;;;;;;;31.15;22.40;;;1.30;99.90;;;;;;5050096;28;20053;-53
2022/11/21 02:20:02;;;;;;;32.47;22.67;;;1.20;99.90;;;;;;5049370;28;20053;-50
2022/11/21 02:22:48;;;;;;;33.10;23.70;;;1.30;99.90;;;;;;5048397;28;20151;-52
2022/11/21 02:25:19;;;;;;;34.20;23.85;;;1.30;99.90;;;;;;5047979;28;20060;-50
2022/11/21 02:27:47;;;;;;;29.27;21.95;;;1.30;99.90;;;;;;5050462;28;20197;-53
2022/11/21 02:30:13;;;;;;;31.70;23.10;;;1.30;99.90;;;;;;5049826;28;20051;-53
2022/11/21 02:32:45;;;;;;;29.73;22.58;;;1.30;99.90;;;;;;5048686;28;20041;-51
2022/11/21 02:35:13;;;;;;;32.03;23.42;;;1.30;99.90;;;;;;5049583;28;20121;-53
2022/11/21 02:37:39;;;;;;;32.28;23.60;;;1.30;99.90;;;;;;5045790;28;20482;-52
2022/11/21 02:40:19;;;;;;;32.30;22.73;;;1.30;99.90;;;;;;5046363;28;20510;-50
2022/11/21 02:43:03;;;;;;;34.85;24.33;;;1.30;99.90;;;;;;5040800;28;20625;-51
2022/11/21 02:45:35;;;;;;;29.70;22.30;;;1.30;99.90;;;;;;5057510;28;21600;-53
2022/11/21 02:48:00;;;;;;;34.72;23.85;;;1.30;99.90;;;;;;5040498;28;20387;-53
2022/11/21 02:50:29;;;;;;;32.22;22.70;;;1.30;99.90;;;;;;5040490;28;20494;-52
2022/11/21 02:52:55;;;;;;;31.85;22.48;;;1.30;99.90;;;;;;5045623;28;20179;-54
2022/11/21 02:55:22;;;;;;;31.63;22.90;;;1.30;99.90;;;;;;5043700;28;20041;-50
2022/11/21 02:57:48;;;;;;;31.67;22.02;;;1.30;99.90;;;;;;5038794;28;20036;-49
2022/11/21 03:00:14;;;;;;;33.50;23.13;;;1.30;99.90;;;;;;5038856;28;20099;-50
2022/11/21 03:02:40;;;;;;;32.15;22.77;;;1.30;99.90;;;;;;5038491;28;20057;-50
2022/11/21 03:05:08;;;;;;;31.10;22.58;;;1.20;99.90;;;;;;5040924;28;20085;-49
2022/11/21 03:07:34;;;;;;;33.28;22.58;;;1.20;99.90;;;;;;5043958;28;20040;-50
2022/11/21 03:09:59;;;;;;;30.48;21.80;;;1.30;99.90;;;;;;5039311;28;20040;-50
2022/11/21 03:12:25;;;;;;;30.52;23.00;;;1.20;99.90;;;;;;5043810;28;20106;-50
2022/11/21 03:14:50;;;;;;;32.10;22.85;;;1.20;99.90;;;;;;5041890;28;20067;-49
2022/11/21 03:17:17;;;;;;;31.63;22.77;;;1.30;99.90;;;;;;5040347;28;20528;-49
2022/11/21 03:19:42;;;;;;;29.33;21.42;;;1.20;99.90;;;;;;5040312;28;20402;-49
2022/11/21 03:22:08;;;;;;;32.03;23.25;;;1.20;99.90;;;;;;5041477;28;21421;-49
2022/11/21 03:24:34;;;;;;;32.08;24.00;;;1.20;99.90;;;;;;5038057;28;20510;-49
2022/11/21 03:26:59;;;;;;;32.20;23.80;;;1.20;99.90;;;;;;5041080;28;20674;-50
2022/11/21 03:29:25;;;;;;;32.97;23.67;;;1.20;99.90;;;;;;5041822;28;21332;-49
2022/11/21 03:31:51;;;;;;;34.92;23.27;;;1.20;99.90;;;;;;5039575;28;20051;-50
2022/11/21 03:34:16;;;;;;;30.92;21.40;;;1.20;99.90;;;;;;5043570;28;20037;-50
2022/11/21 03:36:42;;;;;;;32.20;22.88;;;1.20;99.90;;;;;;5044198;28;20037;-55
2022/11/21 03:39:08;;;;;;;30.33;21.42;;;1.10;99.90;;;;;;5046779;28;20075;-51
2022/11/21 03:41:34;;;;;;;30.08;23.00;;;1.10;99.90;;;;;;5045348;28;20124;-51
2022/11/21 03:44:04;;;;;;;32.95;24.08;;;1.10;99.90;;;;;;5045309;28;20079;-52
2022/11/21 03:46:32;;;;;;;31.02;22.92;;;1.10;99.90;;;;;;5045081;28;20091;-51
2022/11/21 03:48:58;;;;;;;34.17;23.35;;;1.10;99.90;;;;;;5039520;28;20395;-50
2022/11/21 03:51:24;;;;;;;31.67;23.30;;;1.10;99.90;;;;;;5038070;28;20052;-49
2022/11/21 03:53:50;;;;;;;31.65;23.13;;;1.10;99.90;;;;;;5037510;28;20045;-50
2022/11/21 03:56:16;;;;;;;30.90;22.60;;;1.10;99.90;;;;;;5050425;28;20120;-49
2022/11/21 03:58:42;;;;;;;34.15;22.95;;;1.10;99.90;;;;;;5052535;28;20539;-50
2022/11/21 04:01:07;;;;;;;32.78;23.00;;;1.00;99.90;;;;;;5051066;28;20139;-51
2022/11/21 04:03:33;;;;;;;30.05;22.33;;;1.00;99.90;;;;;;5056516;28;20119;-49
2022/11/21 04:05:59;;;;;;;31.15;21.98;;;1.00;99.90;;;;;;5057096;28;20478;-49
2022/11/21 04:08:25;;;;;;;32.55;23.20;;;1.00;99.90;;;;;;5053739;28;20044;-49
2022/11/21 04:10:52;;;;;;;34.47;22.65;;;1.00;99.90;;;;;;5053687;28;20116;-49
2022/11/21 04:13:17;;;;;;;32.95;23.50;;;0.90;99.90;;;;;;5050773;28;20052;-52
2022/11/21 04:15:44;;;;;;;32.00;22.67;;;0.90;99.90;;;;;;5046281;28;20095;-54
2022/11/21 04:18:10;;;;;;;33.78;23.02;;;0.90;99.90;;;;;;5042704;28;20086;-49
2022/11/21 04:20:36;;;;;;;31.92;23.00;;;1.00;99.90;;;;;;5042152;28;20033;-51
2022/11/21 04:23:02;;;;;;;29.35;21.58;;;0.70;99.90;;;;;;5042167;28;20651;-51
2022/11/21 04:25:28;;;;;;;31.85;22.83;;;0.70;99.90;;;;;;5042719;28;20041;-49
2022/11/21 04:27:57;;;;;;;30.63;21.58;;;0.60;99.90;;;;;;5044988;28;20050;-49
2022/11/21 04:30:23;;;;;;;34.67;23.02;;;0.60;99.90;;;;;;5045205;28;20123;-49
2022/11/21 04:32:50;;;;;;;32.45;22.30;;;0.40;99.90;;;;;;5042744;28;20635;-49
2022/11/21 04:35:16;;;;;;;32.85;22.42;;;;;;;;;;5043984;28;20525;-54
2022/11/21 04:37:42;;;;;;;26.95;22.33;;;0.40;99.90;;;;;;5045225;28;20175;-54
2022/11/21 04:40:08;;;;;;;37.03;22.73;;;0.30;99.90;;;;;;5038093;28;20164;-50
2022/11/21 04:42:33;;;;;;;29.77;21.88;;;0.20;99.90;;;;;;5038838;28;20079;-50
2022/11/21 04:44:59;;;;;;;30.27;21.65;;;0.10;99.90;;;;;;5039007;28;20486;-51
2022/11/21 04:47:24;;;;;;;32.53;21.98;;;0.10;99.90;;;;;;5038134;28;20053;-49
2022/11/21 04:49:50;;;;;;;31.73;22.15;;;0.10;99.90;;;;;;5037484;28;20041;-49
2022/11/21 04:52:16;;;;;;;30.80;22.55;;;0.00;99.90;;;;;;5038871;28;20374;-51
2022/11/21 04:54:41;;;;;;;33.70;23.48;;;0.00;99.90;;;;;;5036429;28;20044;-51
2022/11/21 04:57:07;;;;;;;33.15;23.38;;;-0.10;99.90;;;;;;5036501;28;20095;-50
2022/11/21 04:59:33;;;;;;;29.63;21.17;;;-0.10;99.90;;;;;;5035776;28;20059;-53
2022/11/21 05:01:58;;;;;;;34.33;22.75;;;-0.20;99.90;;;;;;5037477;28;20084;-49
2022/11/21 05:04:24;;;;;;;34.88;23.63;;;-0.20;99.90;;;;;;5037623;28;20069;-48
2022/11/21 05:06:49;;;;;;;34.65;22.85;;;-0.20;99.90;;;;;;5043048;28;20055;-50
2022/11/21 05:09:15;;;;;;;34.72;21.50;;;-0.20;99.90;;;;;;5042529;28;20158;-49
2022/11/21 05:14:25;;;;;;;32.13;22.25;;;-0.30;99.90;;;;;;5038038;28;20052;-50
2022/11/21 05:16:51;;;;;;;30.20;21.98;;;-0.30;99.90;;;;;;5038931;28;20087;-49
2022/11/21 05:19:17;;;;;;;31.75;21.70;;;-0.40;99.90;;;;;;5037413;28;20128;-52
2022/11/21 05:21:43;;;;;;;32.40;22.02;;;-0.50;99.90;;;;;;5051598;28;21666;-50
2022/11/21 05:24:09;;;;;;;33.05;23.15;;;-0.50;99.90;;;;;;5036316;28;20109;-49
2022/11/21 05:26:34;;;;;;;31.15;21.30;;;-0.50;99.90;;;;;;5035922;28;20041;-51
2022/11/21 05:29:00;;;;;;;31.15;21.75;;;-0.60;99.90;;;;;;5036519;28;20041;-52
2022/11/21 05:31:25;;;;;;;33.40;23.00;;;-0.60;99.90;;;;;;5036785;28;20417;-49
2022/11/21 05:33:51;;;;;;;31.63;22.17;;;-0.60;99.90;;;;;;5038084;28;20102;-49
2022/11/21 05:36:17;;;;;;;35.15;23.42;;;-0.70;99.90;;;;;;5038101;28;20041;-50
2022/11/21 05:38:42;;;;;;;37.90;24.23;;;-0.60;99.90;;;;;;5044665;28;20045;-52
2022/11/21 05:41:08;;;;;;;44.53;26.13;;;-0.60;99.90;;;;;;5044032;28;20048;-52
2022/11/21 05:43:46;;;;;;;36.63;24.65;;;-0.60;99.90;;;;;;5044187;28;20033;-49
2022/11/21 05:46:17;;;;;;;37.55;24.13;;;-0.60;99.90;;;;;;5042857;28;20061;-49
2022/11/21 05:48:43;;;;;;;40.00;25.05;;;-0.70;99.90;;;;;;5042727;28;20041;-50
2022/11/21 05:51:08;;;;;;;34.47;24.58;;;-0.70;99.90;;;;;;5034088;28;20091;-49
2022/11/21 05:53:34;;;;;;;38.10;25.13;;;-0.70;99.90;;;;;;5031683;28;20397;-49
2022/11/21 05:56:06;;;;;;;39.53;24.23;;;-0.70;99.90;;;;;;5035600;28;20044;-53
2022/11/21 05:58:32;;;;;;;44.72;27.42;;;-0.70;99.90;;;;;;5035999;28;20045;-54
2022/11/21 06:00:59;;;;;;;41.95;26.55;;;-0.70;99.90;;;;;;5035229;28;20675;-49
2022/11/21 06:03:25;;;;;;;39.70;25.70;;;-0.70;99.90;;;;;;5036750;28;20033;-51
2022/11/21 06:05:59;;;;;;;40.65;25.65;;;-0.70;99.90;;;;;;5038378;28;20378;-49
2022/11/21 06:08:26;;;;;;;42.75;25.55;;;-0.70;99.90;;;;;;5046028;28;20041;-50
2022/11/21 06:10:52;;;;;;;39.75;24.85;;;-0.70;99.90;;;;;;5044973;28;20052;-49
2022/11/21 06:13:21;;;;;;;40.60;25.23;;;-0.70;99.90;;;;;;5040494;28;20037;-52
2022/11/21 06:15:51;;;;;;;44.03;27.38;;;-0.80;99.90;;;;;;5041075;28;20045;-49
2022/11/21 06:18:17;;;;;;;41.42;27.08;;;-0.80;99.90;;;;;;5040105;28;20049;-53
2022/11/21 06:20:43;;;;;;;44.60;27.67;;;-0.80;99.90;;;;;;5040903;28;20095;-49
2022/11/21 06:23:08;;;;;;;44.15;27.00;;;-0.70;99.90;;;;;;5045436;28;20643;-54
2022/11/21 06:25:34;;;;;;;45.47;28.05;;;-0.70;99.90;;;;;;5045280;28;20041;-51
2022/11/21 06:27:59;;;;;;;45.22;27.10;;;-0.80;99.90;;;;;;5046805;28;20540;-54
2022/11/21 06:30:25;;;;;;;43.03;26.77;;;-0.80;99.90;;;;;;5047040;28;20075;-52
2022/11/21 06:32:51;;;;;;;40.88;26.08;;;-0.80;99.90;;;;;;5047259;28;20096;-51
2022/11/21 06:35:16;;;;;;;43.65;27.73;;;-0.80;99.90;;;;;;5048386;28;20781;-52
2022/11/21 06:37:42;;;;;;;45.55;29.35;;;-0.80;99.90;;;;;;5047741;28;20033;-53
2022/11/21 06:40:08;;;;;;;48.47;29.75;;;-0.70;99.90;;;;;;5046026;28;20178;-52
2022/11/21 06:42:34;;;;;;;48.33;27.88;;;-0.70;99.90;;;;;;5050098;28;20051;-53
2022/11/21 06:44:59;;;;;;;45.92;29.30;;;-0.70;99.90;;;;;;5049707;28;20049;-50
2022/11/21 06:47:25;;;;;;;45.05;27.83;;;-0.70;99.90;;;;;;5050868;28;20056;-52
2022/11/21 06:49:50;;;;;;;42.92;28.27;;;-0.70;99.90;;;;;;5052266;28;20045;-49
2022/11/21 06:52:16;;;;;;;45.83;29.08;;;-0.80;99.90;;;;;;5047990;28;20140;-50
2022/11/21 06:54:41;;;;;;;46.25;28.38;;;-0.80;99.90;;;;;;5045593;28;20079;-50
2022/11/21 06:57:07;;;;;;;47.15;28.55;;;-0.80;99.90;;;;;;5045217;28;20037;-50
2022/11/21 06:59:33;;;;;;;41.72;27.10;;;-0.80;99.90;;;;;;5044327;28;20064;-49
2022/11/21 07:01:59;;;;;;;39.60;26.02;;;-0.80;99.90;;;;;;5041278;28;20049;-51
2022/11/21 07:04:24;;;;;;;44.20;27.35;;;-0.80;99.90;;;;;;5039204;28;20045;-51
2022/11/21 07:06:50;;;;;;;48.15;29.20;;;-0.70;99.90;;;;;;5041927;28;20555;-50
2022/11/21 07:09:15;;;;;;;44.28;27.92;;;-0.70;99.90;;;;;;5039488;28;20067;-51
2022/11/21 07:11:41;;;;;;;44.35;27.65;;;-0.60;99.90;;;;;;5038221;28;20041;-53
2022/11/21 07:14:07;;;;;;;42.95;26.67;;;-0.60;99.90;;;;;;5039974;28;21282;-51
2022/11/21 07:16:33;;;;;;;43.45;26.73;;;-0.60;99.90;;;;;;5037952;28;20072;-50
2022/11/21 07:18:59;;;;;;;45.72;29.23;;;-0.60;99.90;;;;;;5038123;28;20580;-51
2022/11/21 07:21:25;;;;;;;43.08;27.10;;;-0.50;99.90;;;;;;5040920;28;20052;-50
2022/11/21 07:23:51;;;;;;;49.50;27.73;;;-0.50;99.90;;;;;;5040321;28;20413;-51
2022/11/21 07:26:16;;;;;;;46.08;27.40;;;-0.50;99.90;;;;;;5039582;28;21317;-51
2022/11/21 07:28:42;;;;;;;45.42;27.70;;;-0.50;99.90;;;;;;5042526;28;20068;-49
2022/11/21 07:31:09;;;;;;;45.40;27.52;;;-0.50;99.90;;;;;;5040151;28;20174;-49
2022/11/21 07:33:36;;;;;;;48.92;28.58;;;-0.40;99.90;;;;;;5039908;28;20167;-50
2022/11/21 07:36:02;;;;;;;47.95;29.92;;;-0.30;99.90;;;;;;5038813;28;20189;-52
2022/11/21 07:38:27;;;;;;;51.40;30.50;;;-0.40;99.90;;;;;;5038477;28;20049;-52
2022/11/21 07:40:55;;;;;;;45.92;28.92;;;-0.30;99.90;;;;;;5041406;28;20490;-53
2022/11/21 07:43:21;;;;;;;;;;;-0.30;99.90;;;;;;5044002;28;20047;-52
2022/11/21 07:45:47;;;;;;;46.47;28.73;;;-0.30;99.90;;;;;;5042709;28;20286;-52
2022/11/21 07:48:12;;;;;;;49.08;28.90;;;-0.30;99.90;;;;;;5041582;28;20552;-55
2022/11/21 07:50:38;;;;;;;53.95;29.95;;;-0.30;99.90;;;;;;5041309;28;20440;-53
2022/11/21 07:53:05;;;;;;;51.38;30.25;;;-0.30;99.90;;;;;;5042320;28;20035;-50
2022/11/21 07:55:32;;;;;;;55.35;31.88;;;-0.20;99.90;;;;;;5039260;28;20045;-49
2022/11/21 07:58:03;;;;;;;50.45;30.10;;;-0.20;99.90;;;;;;5042421;28;20048;-54
2022/11/21 08:00:30;;;;;;;52.63;31.17;;;-0.10;99.90;;;;;;5043159;28;20091;-52
2022/11/21 08:02:56;;;;;;;55.10;33.03;;;-0.10;99.90;;;;;;5044986;28;22079;-50
2022/11/21 08:05:22;;;;;;;54.20;32.10;;;-0.10;99.90;;;;;;5042079;28;20311;-50
2022/11/21 08:07:48;;;;;;;54.28;32.05;;;-0.10;99.90;;;;;;5048541;28;20079;-51
2022/11/21 08:10:15;;;;;;;53.90;30.75;;;-0.10;99.90;;;;;;5048148;28;20128;-51
2022/11/21 08:12:41;;;;;;;46.78;28.30;;;;;;;;;;5050360;28;20045;-53
2022/11/21 08:15:07;;;;;;;51.67;27.10;;;0.00;99.90;;;;;;5050591;28;20037;-52
2022/11/21 08:17:33;;;;;;;63.00;28.40;;;0.00;99.90;;;;;;5052522;28;20049;-53
2022/11/21 08:19:59;;;;;;;49.83;26.77;;;0.10;99.90;;;;;;5052890;28;20060;-54
2022/11/21 08:22:25;;;;;;;47.72;25.23;;;0.00;99.90;;;;;;5050437;28;20041;-53
2022/11/21 08:24:53;;;;;;;56.85;25.85;;;0.20;99.90;;;;;;5050857;28;20128;-53
2022/11/21 08:27:20;;;;;;;53.03;24.27;;;0.20;99.90;;;;;;5050983;28;20094;-54
2022/11/21 08:29:46;;;;;;;65.15;25.80;;;0.20;99.90;;;;;;5049983;28;20037;-51
2022/11/21 08:32:12;;;;;;;60.88;25.73;;;0.20;99.90;;;;;;5046097;28;20044;-50
2022/11/21 08:34:37;;;;;;;63.67;26.52;;;0.30;99.90;;;;;;5048193;28;20037;-50
2022/11/21 08:37:03;;;;;;;71.20;26.58;;;0.40;99.90;;;;;;5048108;28;20510;-51
2022/11/21 08:39:29;;;;;;;107.32;27.25;;;0.40;99.90;;;;;;5046888;28;20036;-49
2022/11/21 08:42:02;;;;;;;55.08;27.52;;;0.40;99.90;;;;;;5038692;28;20059;-50
2022/11/21 08:44:31;;;;;;;62.42;29.23;;;0.60;99.90;;;;;;5037538;28;20136;-50
2022/11/21 08:46:57;;;;;;;59.25;29.15;;;0.60;99.90;;;;;;5039747;28;20052;-54
2022/11/21 08:49:23;;;;;;;75.50;27.42;;;0.50;99.90;;;;;;5044171;28;20523;-55
2022/11/21 08:51:48;;;;;;;83.15;27.98;;;0.60;99.90;;;;;;5051086;28;20094;-51
2022/11/21 08:54:18;;;;;;;77.07;28.38;;;0.70;99.90;;;;;;5052266;28;20059;-53
2022/11/21 08:56:44;;;;;;;66.57;27.55;;;0.70;99.90;;;;;;5052961;28;20428;-52
2022/11/21 08:59:10;;;;;;;59.25;26.45;;;0.70;99.90;;;;;;5052509;28;20045;-52
2022/11/21 09:01:37;;;;;;;56.03;28.05;;;0.70;99.90;;;;;;5050773;28;20064;-55
2022/11/21 09:04:04;;;;;;;91.95;27.50;;;0.80;99.90;;;;;;5051285;28;20674;-51
2022/11/21 09:06:29;;;;;;;106.88;29.90;;;0.80;99.90;;;;;;5051673;28;20049;-51
2022/11/21 09:08:55;;;;;;;79.32;26.73;;;0.80;99.90;;;;;;5051208;28;20033;-51
2022/11/21 09:11:21;;;;;;;80.60;28.08;;;0.90;99.90;;;;;;5052072;28;20033;-54
2022/11/21 09:18:01;;;;;;;65.15;26.33;;;0.90;99.90;;;;;;5050257;28;20131;-53
2022/11/21 09:19:20;;;;;;;45.33;25.65;;;1.10;99.90;;;;;;5052558;28;20053;-50
2022/11/21 09:21:49;;;;;;;43.63;25.45;;;1.30;99.90;;;;;;5050618;28;20045;-52
2022/11/21 09:24:14;;;;;;;43.00;26.05;;;1.20;99.90;;;;;;5050684;28;20037;-53
2022/11/21 09:26:40;;;;;;;63.35;29.15;;;1.20;99.90;;;;;;5052561;28;20493;-50
2022/11/21 09:29:06;;;;;;;60.13;25.05;;;1.30;99.90;;;;;;5048501;28;20561;-51
2022/11/21 09:31:31;;;;;;;44.88;25.52;;;1.30;99.90;;;;;;5049962;28;20060;-51
2022/11/21 09:33:57;;;;;;;68.72;25.48;;;1.40;99.90;;;;;;5049165;28;20043;-51
2022/11/21 09:36:23;;;;;;;48.55;27.02;;;1.40;99.90;;;;;;5050545;28;20382;-54
2022/11/21 09:38:51;;;;;;;44.95;26.70;;;1.50;99.90;;;;;;5051692;28;20490;-50
2022/11/21 09:44:34;;;;;;;56.67;24.20;;;1.60;99.90;;;;;;5049860;28;20049;-51
2022/11/21 09:47:24;;;;;;;40.50;22.60;;;1.40;99.90;;;;;;5051210;28;20535;-53
2022/11/21 09:50:00;;;;;;;44.65;23.88;;;1.40;99.90;;;;;;5040536;28;20502;-52
2022/11/21 09:52:38;;;;;;;50.67;25.05;;;1.30;99.90;;;;;;5045109;28;20083;-51
2022/11/21 09:55:25;;;;;;;55.10;25.35;;;1.30;99.90;;;;;;5049520;28;20045;-55
2022/11/21 09:57:50;;;;;;;47.53;24.33;;;1.40;99.90;;;;;;5047266;28;20441;-53
2022/11/21 10:00:22;;;;;;;47.53;27.85;;;1.50;99.90;;;;;;5046840;28;20032;-51
2022/11/21 10:02:49;;;;;;;43.72;25.25;;;1.50;99.90;;;;;;5052598;28;20061;-56
2022/11/21 10:05:15;;;;;;;39.05;23.98;;;1.60;99.90;;;;;;5050471;28;20363;-52
2022/11/21 10:07:41;;;;;;;39.10;23.95;;;1.70;99.90;;;;;;5068093;28;20143;-56
2022/11/21 10:10:38;;;;;;;37.88;24.10;;;1.70;99.90;;;;;;5043538;28;20048;-55
2022/11/21 10:13:27;;;;;;;35.25;23.80;;;1.80;99.90;;;;;;5044507;28;20072;-54
2022/11/21 10:16:07;;;;;;;33.10;21.70;;;1.80;99.90;;;;;;5044543;28;20095;-54
2022/11/21 10:18:48;;;;;;;33.45;23.13;;;1.90;99.90;;;;;;5049782;28;20044;-53
2022/11/21 10:21:22;;;;;;;31.50;22.02;;;1.90;99.90;;;;;;5049047;28;20051;-54
2022/11/21 10:23:57;;;;;;;34.78;23.08;;;2.00;99.90;;;;;;5048940;28;20090;-54
2022/11/21 10:26:38;;;;;;;33.45;23.90;;;2.00;99.90;;;;;;5049597;28;20675;-54
2022/11/21 10:29:11;;;;;;;40.63;25.85;;;2.20;99.90;;;;;;5047100;28;20125;-52
2022/11/21 10:31:39;;;;;;;34.15;24.10;;;2.20;99.90;;;;;;5052218;28;20047;-50
2022/11/21 10:34:16;;;;;;;;;;;2.30;99.90;;;;;;5049482;28;20131;-51
2022/11/21 10:36:47;;;;;;;35.28;23.90;;;2.30;99.90;;;;;;5045441;28;19963;-53
2022/11/21 10:39:19;;;;;;;37.42;26.10;;;2.40;99.90;;;;;;5056866;28;20072;-54
2022/11/21 10:41:57;;;;;;;35.97;24.30;;;2.40;99.90;;;;;;5052761;28;20039;-52
2022/11/21 10:47:26;;;;;;;26.88;19.48;;;2.50;99.90;;;;;;5053257;28;20049;-52
2022/11/21 10:50:10;;;;;;;30.50;22.20;;;2.50;99.90;;;;;;5051416;28;20044;-56
2022/11/21 10:52:48;;;;;;;33.40;23.48;;;2.60;99.90;;;;;;5083159;23;20098;-81
2022/11/21 10:55:14;;;;;;;30.00;21.93;;;2.60;99.90;;;;;;5081466;28;20094;-81
2022/11/21 10:57:44;;;;;;;30.83;23.00;;;2.70;99.90;;;;;;5082654;28;20098;-81
2022/11/21 11:00:22;;;;;;;30.05;22.77;;;2.80;99.90;;;;;;5060644;28;20049;-80
2022/11/21 11:02:54;;;;;;;33.63;23.17;;;2.90;99.90;;;;;;5070990;28;20093;-79
2022/11/21 11:05:27;;;;;;;31.23;23.00;;;3.00;99.90;;;;;;5063846;28;20076;-81
2022/11/21 11:08:13;;;;;;;31.88;23.70;;;3.10;99.90;;;;;;5057478;28;20075;-81
2022/11/21 11:10:41;;;;;;;32.88;23.15;;;3.20;99.90;;;;;;5061285;28;20048;-81
2022/11/21 11:15:55;;;;;;;27.02;20.63;;;3.30;99.90;;;;;;5068887;28;19955;-79
2022/11/21 11:18:22;;;;;;;26.10;19.38;;;3.50;99.90;;;;;;5062835;28;20135;-81
2022/11/21 11:20:48;;;;;;;25.63;19.90;;;3.60;99.90;;;;;;5060939;28;20037;-81
2022/11/21 11:23:23;;;;;;;25.45;19.92;;;3.70;99.90;;;;;;5071779;28;20037;-81
2022/11/21 11:25:53;;;;;;;25.88;18.65;;;;;;;;;;5058926;28;20127;-81
2022/11/21 11:28:19;;;;;;;23.50;17.70;;;3.70;99.90;;;;;;5066473;28;20041;-81
2022/11/21 11:30:47;;;;;;;22.27;17.58;;;3.70;99.90;;;;;;5055397;28;20402;-81
2022/11/21 11:33:32;;;;;;;21.45;16.65;;;3.80;99.90;;;;;;5076298;28;20127;-81
2022/11/21 11:36:09;;;;;;;18.88;15.43;;;4.00;99.90;;;;;;5053892;28;20443;-81
2022/11/21 11:38:35;;;;;;;21.25;16.10;;;;;;;;;;5057021;28;20618;-82
2022/11/21 11:41:05;;;;;;;21.65;16.20;;;;;;;;;;5072096;28;20148;-81
2022/11/21 11:50:11;;;;;;;20.50;15.77;;;4.20;99.90;;;;;;5058143;28;20041;-81
2022/11/21 11:53:15;;;;;;;20.33;15.45;;;4.20;99.90;;;;;;5078721;28;20056;-81
2022/11/21 11:55:52;;;;;;;18.20;14.55;;;4.40;99.90;;;;;;5081222;28;20056;-81
2022/11/21 11:58:45;;;;;;;19.38;16.05;;;4.30;99.90;;;;;;5068380;28;20049;-81
2022/11/21 12:01:28;;;;;;;18.17;15.30;;;4.50;99.90;;;;;;5066258;28;20053;-81
2022/11/21 12:03:56;;;;;;;17.40;14.88;;;4.50;99.90;;;;;;5097598;28;20486;-80
2022/11/21 12:06:30;;;;;;;19.35;15.18;;;4.40;99.90;;;;;;5080516;28;20041;-81
2022/11/21 12:09:04;;;;;;;19.80;15.80;;;4.20;99.90;;;;;;5062857;28;20083;-81
2022/11/21 12:12:06;;;;;;;19.80;16.13;;;4.40;99.90;;;;;;5065261;28;20072;-81
2022/11/21 12:17:41;;;;;;;19.30;15.43;;;4.70;99.90;;;;;;5055761;28;20160;-81
2022/11/21 12:20:16;;;;;;;19.90;16.00;;;4.50;99.90;;;;;;5066880;28;20059;-80
2022/11/21 12:22:43;;;;;;;21.38;16.77;;;4.70;99.90;;;;;;5064024;28;20541;-80
2022/11/21 12:25:11;;;;;;;19.25;15.82;;;4.50;99.90;;;;;;5069469;28;20052;-81
2022/11/21 12:27:40;;;;;;;18.15;14.52;;;4.40;99.90;;;;;;5063366;28;20036;-80
2022/11/21 12:30:50;;;;;;;21.48;16.17;;;4.40;99.90;;;;;;5056833;28;20052;-80
2022/11/21 12:33:21;;;;;;;21.20;16.48;;;4.60;99.90;;;;;;5056109;28;20048;-80
2022/11/21 12:36:31;;;;;;;20.00;16.35;;;4.50;99.90;;;;;;5065172;28;20138;-80
2022/11/21 12:39:37;;;;;;;19.60;15.82;;;4.60;99.90;;;;;;5068193;28;20044;-80
2022/11/21 12:45:27;;;;;;;20.20;15.93;;;4.40;99.90;;;;;;5072152;28;20601;-81
2022/11/21 12:54:56;;;;;;;23.40;18.23;;;4.10;99.90;;;;;;5083688;28;20510;-79
2022/11/21 12:57:34;;;;;;;22.30;17.40;;;4.10;99.90;;;;;;5086378;28;20044;-81
2022/11/21 12:59:59;;;;;;;;;;;4.10;99.90;;;;;;5064806;28;20047;-78
2022/11/21 13:02:50;;;;;;;25.08;18.10;;;4.00;99.90;;;;;;5089848;28;19924;-81
2022/11/21 13:05:23;;;;;;;23.15;17.00;;;4.20;99.90;;;;;;5075022;28;20043;-80
2022/11/21 13:07:59;;;;;;;24.27;17.98;;;4.00;99.90;;;;;;5078139;28;20047;-80
2022/11/21 13:10:26;;;;;;;21.33;17.40;;;4.00;99.90;;;;;;5068297;28;20398;-80
2022/11/21 13:13:20;;;;;;;23.48;18.85;;;4.00;99.90;;;;;;5073133;28;20037;-79
2022/11/21 13:16:00;;;;;;;25.55;18.77;;;4.00;99.90;;;;;;5079292;28;20048;-80
2022/11/21 13:18:34;;;;;;;24.30;18.42;;;4.10;99.90;;;;;;5058441;28;20462;-80
2022/11/21 13:21:00;;;;;;;28.77;19.15;;;4.10;99.90;;;;;;5077354;28;20101;-80
2022/11/21 13:23:41;;;;;;;25.05;19.38;;;4.20;99.90;;;;;;5059182;28;20436;-80